Time;durP1;ratioP1;P1;durP2;ratioP2;P2;SDS_P1;SDS_P2;PMS_P1;PMS_P2;Temp;Humidity;BMP_temperature;BMP_pressure;BME280_temperature;BME280_humidity;BME280_pressure;Samples;Min_cycle;Max_cycle;Signal;HPM_P1;HPM_P2
2023/09/15 00:02:25;;;;;;;240.87;83.37;;;;;;;;;;5055070;28;20417;-45
2023/09/15 00:04:54;;;;;;;239.03;81.77;;;;;;;;;;5055051;28;20500;-45
2023/09/15 00:07:20;;;;;;;241.83;82.30;;;;;;;;;;5055019;28;20910;-45
2023/09/15 00:09:47;;;;;;;237.27;81.33;;;;;;;;;;5055038;28;20439;-45
2023/09/15 00:12:13;;;;;;;238.93;82.30;;;;;;;;;;5055160;28;20419;-45
2023/09/15 00:14:39;;;;;;;239.50;80.20;;;;;;;;;;5054415;28;20404;-45
2023/09/15 00:17:05;;;;;;;246.33;86.97;;;;;;;;;;5054884;28;20491;-45
2023/09/15 00:19:31;;;;;;;240.40;81.67;;;;;;;;;;5054932;28;20435;-46
2023/09/15 00:21:57;;;;;;;241.97;83.17;;;;;;;;;;5055044;28;20475;-45
2023/09/15 00:24:23;;;;;;;238.93;80.53;;;;;;;;;;5054900;28;20470;-45
2023/09/15 00:26:50;;;;;;;239.50;80.47;;;;;;;;;;5054760;28;20825;-45
2023/09/15 00:29:16;;;;;;;242.03;84.07;;;;;;;;;;5054330;28;20432;-45
2023/09/15 00:31:42;;;;;;;242.73;84.20;;;;;;;;;;5054656;28;20414;-45
2023/09/15 00:34:08;;;;;;;240.57;80.40;;;;;;;;;;5054777;28;20495;-45
2023/09/15 00:36:34;;;;;;;250.77;87.47;;;;;;;;;;5052514;28;20508;-44
2023/09/15 00:39:01;;;;;;;240.67;82.60;;;;;;;;;;5049132;28;20445;-45
2023/09/15 00:41:27;;;;;;;239.27;80.67;;;;;;;;;;5052513;28;20417;-44
2023/09/15 00:43:53;;;;;;;241.53;81.17;;;;;;;;;;5051419;28;20903;-44
2023/09/15 00:46:19;;;;;;;240.13;81.47;;;;;;;;;;5048646;28;20457;-44
2023/09/15 00:48:45;;;;;;;240.60;81.33;;;;;;;;;;5047527;28;20840;-45
2023/09/15 00:51:11;;;;;;;242.87;84.67;;;;;;;;;;5053501;28;20459;-44
2023/09/15 00:53:38;;;;;;;242.30;83.80;;;;;;;;;;5054470;28;20461;-44
2023/09/15 00:56:05;;;;;;;241.87;83.40;;;;;;;;;;5046304;28;20421;-44
2023/09/15 00:58:31;;;;;;;240.13;80.53;;;;;;;;;;5053817;28;20973;-44
2023/09/15 01:00:58;;;;;;;238.47;80.23;;;;;;;;;;5054070;28;20972;-44
2023/09/15 01:03:25;;;;;;;240.27;83.03;;;;;;;;;;5046046;28;20416;-46
2023/09/15 01:05:51;;;;;;;241.17;81.13;;;;;;;;;;5052656;28;20847;-44
2023/09/15 01:08:17;;;;;;;240.87;82.37;;;;;;;;;;5053560;28;20439;-45
2023/09/15 01:10:43;;;;;;;238.13;78.97;;;;;;;;;;5053876;28;20412;-44
2023/09/15 01:13:10;;;;;;;243.30;83.70;;;;;;;;;;5053872;28;20405;-44
2023/09/15 01:15:54;;;;;;;240.03;81.40;;;;;;;;;;5053916;28;20408;-44
2023/09/15 01:18:27;;;;;;;241.07;82.27;;;;;;;;;;5047875;28;20481;-44
2023/09/15 01:21:08;;;;;;;241.07;81.53;;;;;;;;;;5053221;28;20775;-44
2023/09/15 01:23:36;;;;;;;239.07;79.33;;;;;;;;;;5053949;28;20421;-44
2023/09/15 01:26:22;;;;;;;240.77;82.70;;;;;;;;;;5053756;28;20513;-44
2023/09/15 01:29:02;;;;;;;240.33;82.30;;;;;;;;;;5053344;28;20514;-44
2023/09/15 01:31:29;;;;;;;242.90;81.73;;;;;;;;;;5052990;28;20411;-45
2023/09/15 01:33:55;;;;;;;243.07;83.10;;;;;;;;;;5053150;28;20415;-45
2023/09/15 01:36:21;;;;;;;241.43;80.97;;;;;;;;;;5052052;28;20417;-44
2023/09/15 01:38:47;;;;;;;241.07;81.20;;;;;;;;;;5053138;28;20466;-45
2023/09/15 01:41:13;;;;;;;243.87;83.83;;;;;;;;;;5053412;28;20468;-44
2023/09/15 01:43:39;;;;;;;241.43;82.00;;;;;;;;;;5053357;28;20824;-45
2023/09/15 01:46:05;;;;;;;237.33;77.73;;;;;;;;;;5046447;28;20467;-44
2023/09/15 01:48:32;;;;;;;240.80;83.27;;;;;;;;;;5052618;28;20429;-44
2023/09/15 01:50:59;;;;;;;235.97;76.17;;;;;;;;;;5053045;28;20426;-45
2023/09/15 01:53:25;;;;;;;239.80;80.80;;;;;;;;;;5053541;28;20412;-44
2023/09/15 01:55:51;;;;;;;235.40;83.40;;;;;;;;;;5060014;28;20418;-44
2023/09/15 01:58:18;;;;;;;238.97;79.63;;;;;;;;;;5052888;28;20518;-45
2023/09/15 02:00:45;;;;;;;239.23;81.13;;;;;;;;;;5055109;28;20835;-44
2023/09/15 02:03:12;;;;;;;239.63;80.27;;;;;;;;;;5056760;28;20424;-46
2023/09/15 02:05:38;;;;;;;239.57;81.03;;;;;;;;;;5058079;28;20458;-44
2023/09/15 02:08:04;;;;;;;242.20;82.37;;;;;;;;;;5052704;28;20447;-44
2023/09/15 02:10:30;;;;;;;240.37;81.47;;;;;;;;;;5052850;28;20893;-44
2023/09/15 02:12:56;;;;;;;239.47;80.50;;;;;;;;;;5052430;28;20417;-45
2023/09/15 02:15:22;;;;;;;242.27;82.80;;;;;;;;;;5052112;28;20414;-44
2023/09/15 02:17:49;;;;;;;241.10;81.20;;;;;;;;;;5056012;28;20412;-45
2023/09/15 02:20:18;;;;;;;240.90;81.17;;;;;;;;;;5052808;28;20987;-44
2023/09/15 02:22:44;;;;;;;239.03;77.77;;;;;;;;;;5052595;28;20419;-44
2023/09/15 02:25:10;;;;;;;240.00;79.33;;;;;;;;;;5052457;28;20470;-44
2023/09/15 02:27:39;;;;;;;242.63;82.60;;;;;;;;;;5054213;28;20492;-44
2023/09/15 02:30:05;;;;;;;241.87;82.13;;;;;;;;;;5041351;28;20509;-44
2023/09/15 02:32:32;;;;;;;236.97;78.47;;;;;;;;;;5049504;28;20415;-44
2023/09/15 02:34:58;;;;;;;237.67;80.57;;;;;;;;;;5052432;28;20774;-45
2023/09/15 02:37:23;;;;;;;240.53;82.83;;;;;;;;;;5049343;28;20419;-44
2023/09/15 02:39:49;;;;;;;239.77;80.87;;;;;;;;;;5047962;28;20446;-44
2023/09/15 02:42:15;;;;;;;242.23;85.63;;;;;;;;;;5052286;28;20415;-44
2023/09/15 02:44:44;;;;;;;239.30;80.87;;;;;;;;;;5052052;28;20415;-44
2023/09/15 02:47:10;;;;;;;249.03;90.70;;;;;;;;;;5050997;28;20558;-44
2023/09/15 02:49:36;;;;;;;242.03;80.30;;;;;;;;;;5049603;28;20506;-44
2023/09/15 02:52:04;;;;;;;241.00;78.63;;;;;;;;;;5051803;28;20931;-44
2023/09/15 02:54:31;;;;;;;238.57;77.73;;;;;;;;;;5052147;28;20411;-44
2023/09/15 02:56:58;;;;;;;240.97;81.17;;;;;;;;;;5051880;28;20415;-44
2023/09/15 02:59:24;;;;;;;240.60;80.57;;;;;;;;;;5051999;28;20436;-45
2023/09/15 03:01:50;;;;;;;240.23;80.97;;;;;;;;;;5051027;28;20857;-44
2023/09/15 03:04:16;;;;;;;237.50;78.50;;;;;;;;;;5051981;28;20911;-45
2023/09/15 03:06:42;;;;;;;238.07;77.73;;;;;;;;;;5051588;28;20458;-44
2023/09/15 03:09:09;;;;;;;238.47;76.70;;;;;;;;;;5051678;28;20447;-44
2023/09/15 03:11:35;;;;;;;240.60;79.90;;;;;;;;;;5051772;28;20485;-44
2023/09/15 03:14:01;;;;;;;243.67;80.70;;;;;;;;;;5051595;28;20941;-45
2023/09/15 03:16:29;;;;;;;240.50;82.57;;;;;;;;;;5051087;28;20937;-44
2023/09/15 03:18:54;;;;;;;243.00;81.57;;;;;;;;;;5051409;28;20440;-44
2023/09/15 03:21:20;;;;;;;240.40;81.13;;;;;;;;;;5051628;28;20419;-44
2023/09/15 03:23:50;;;;;;;240.90;83.23;;;;;;;;;;5051591;28;20421;-44
2023/09/15 03:26:17;;;;;;;241.30;83.70;;;;;;;;;;5046152;28;20589;-44
2023/09/15 03:28:43;;;;;;;240.37;81.33;;;;;;;;;;5048108;28;20998;-44
2023/09/15 03:31:09;;;;;;;239.43;79.07;;;;;;;;;;5051639;28;20499;-44
2023/09/15 03:33:35;;;;;;;241.27;80.90;;;;;;;;;;5051553;28;20536;-45
2023/09/15 03:36:01;;;;;;;240.50;80.20;;;;;;;;;;5051328;28;20503;-44
2023/09/15 03:38:28;;;;;;;240.80;80.10;;;;;;;;;;5045732;28;20856;-44
2023/09/15 03:40:55;;;;;;;237.77;75.50;;;;;;;;;;5051375;28;20494;-44
2023/09/15 03:43:21;;;;;;;235.77;74.50;;;;;;;;;;5050891;28;20421;-44
2023/09/15 03:45:48;;;;;;;237.47;76.87;;;;;;;;;;5051238;28;20472;-45
2023/09/15 03:48:14;;;;;;;237.73;76.57;;;;;;;;;;5051026;28;20523;-44
2023/09/15 03:50:40;;;;;;;238.33;77.07;;;;;;;;;;5051423;28;20487;-44
2023/09/15 03:53:06;;;;;;;239.60;79.97;;;;;;;;;;5051305;28;20873;-44
2023/09/15 03:55:32;;;;;;;241.67;79.50;;;;;;;;;;5051267;28;20423;-44
2023/09/15 03:57:58;;;;;;;244.87;85.23;;;;;;;;;;5050584;28;20442;-44
2023/09/15 04:00:24;;;;;;;242.37;82.20;;;;;;;;;;5051886;28;20418;-44
2023/09/15 04:02:50;;;;;;;247.03;85.77;;;;;;;;;;5051055;28;20471;-44
2023/09/15 04:05:16;;;;;;;246.30;85.13;;;;;;;;;;5051118;28;20406;-44
2023/09/15 04:07:42;;;;;;;243.87;82.27;;;;;;;;;;5050966;28;20407;-44
2023/09/15 04:10:08;;;;;;;241.87;81.50;;;;;;;;;;5051270;28;20430;-44
2023/09/15 04:12:35;;;;;;;244.83;85.10;;;;;;;;;;5050798;28;20414;-44
2023/09/15 04:15:01;;;;;;;245.07;84.27;;;;;;;;;;5048918;28;20433;-45
2023/09/15 04:17:27;;;;;;;246.90;85.27;;;;;;;;;;5050798;28;20410;-44
2023/09/15 04:19:53;;;;;;;241.13;80.27;;;;;;;;;;5051059;28;20965;-45
2023/09/15 04:22:19;;;;;;;241.57;79.87;;;;;;;;;;5051136;28;20946;-44
2023/09/15 04:24:45;;;;;;;246.80;84.57;;;;;;;;;;5050627;28;20415;-44
2023/09/15 04:27:11;;;;;;;249.27;86.03;;;;;;;;;;5050791;28;20449;-44
2023/09/15 04:29:54;;;;;;;247.23;84.63;;;;;;;;;;5050955;28;20442;-44
2023/09/15 04:32:20;;;;;;;247.33;85.37;;;;;;;;;;5045188;28;20418;-44
2023/09/15 04:34:46;;;;;;;243.53;82.07;;;;;;;;;;5052812;28;20788;-44
2023/09/15 04:37:12;;;;;;;255.07;90.77;;;;;;;;;;5054990;28;20910;-44
2023/09/15 04:39:38;;;;;;;244.20;81.30;;;;;;;;;;5054487;28;20525;-44
2023/09/15 04:42:04;;;;;;;248.13;84.73;;;;;;;;;;5056821;28;20437;-44
2023/09/15 04:44:30;;;;;;;243.77;82.37;;;;;;;;;;5058984;28;20928;-44
2023/09/15 04:46:56;;;;;;;243.33;83.00;;;;;;;;;;5054288;28;20992;-44
2023/09/15 04:49:22;;;;;;;244.77;80.53;;;;;;;;;;5052531;28;20437;-44
2023/09/15 04:51:48;;;;;;;243.67;84.27;;;;;;;;;;5057812;28;20421;-44
2023/09/15 04:54:14;;;;;;;242.70;80.50;;;;;;;;;;5054248;28;20420;-44
2023/09/15 04:56:40;;;;;;;244.47;83.60;;;;;;;;;;5060978;28;20412;-45
2023/09/15 04:59:15;;;;;;;244.40;83.60;;;;;;;;;;5053887;28;20466;-45
2023/09/15 05:01:41;;;;;;;244.87;83.60;;;;;;;;;;5056155;28;20471;-44
2023/09/15 05:04:07;;;;;;;243.97;83.07;;;;;;;;;;5054347;28;20883;-44
2023/09/15 05:06:33;;;;;;;245.87;83.80;;;;;;;;;;5054397;28;20563;-44
2023/09/15 05:08:59;;;;;;;242.77;79.67;;;;;;;;;;5058712;28;20510;-45
2023/09/15 05:11:25;;;;;;;241.17;79.87;;;;;;;;;;5053970;28;20409;-45
2023/09/15 05:13:51;;;;;;;240.33;78.70;;;;;;;;;;5053872;28;20405;-44
2023/09/15 05:16:18;;;;;;;242.83;79.93;;;;;;;;;;5054030;28;21036;-44
2023/09/15 05:18:44;;;;;;;244.87;79.77;;;;;;;;;;5056966;28;20435;-44
2023/09/15 05:21:11;;;;;;;241.97;78.83;;;;;;;;;;5055123;28;20407;-44
2023/09/15 05:23:37;;;;;;;243.82;82.88;;;;;;;;;;5057427;28;20408;-44
2023/09/15 05:26:03;;;;;;;244.33;80.90;;;;;;;;;;5060263;28;20587;-44
2023/09/15 05:28:29;;;;;;;244.20;83.47;;;;;;;;;;5053303;28;20794;-45
2023/09/15 05:31:01;;;;;;;246.57;86.20;;;;;;;;;;5055263;28;20460;-44
2023/09/15 05:33:27;;;;;;;241.27;80.97;;;;;;;;;;5056757;28;20468;-44
2023/09/15 05:35:56;;;;;;;243.53;81.07;;;;;;;;;;5058416;28;20916;-44
2023/09/15 05:38:23;;;;;;;242.47;78.87;;;;;;;;;;5056649;28;20471;-44
2023/09/15 05:40:49;;;;;;;246.83;82.67;;;;;;;;;;5056841;28;20412;-44
2023/09/15 05:43:15;;;;;;;244.93;81.47;;;;;;;;;;5060119;28;20440;-44
2023/09/15 05:45:41;;;;;;;245.30;81.60;;;;;;;;;;5052595;28;20485;-46
2023/09/15 05:48:12;;;;;;;245.07;81.60;;;;;;;;;;5046726;28;20448;-44
2023/09/15 05:50:38;;;;;;;247.27;84.37;;;;;;;;;;5052707;28;20412;-44
2023/09/15 05:53:04;;;;;;;248.33;87.47;;;;;;;;;;5051298;28;20437;-44
2023/09/15 05:55:30;;;;;;;244.83;81.97;;;;;;;;;;5049798;28;20480;-44
2023/09/15 05:57:56;;;;;;;247.70;85.60;;;;;;;;;;5053097;28;20461;-44
2023/09/15 06:00:22;;;;;;;242.60;82.00;;;;;;;;;;5053044;28;20518;-44
2023/09/15 06:02:48;;;;;;;243.60;80.17;;;;;;;;;;5052889;28;20423;-46
2023/09/15 06:05:16;;;;;;;242.70;82.57;;;;;;;;;;5052915;28;20405;-45
2023/09/15 06:07:42;;;;;;;237.83;79.77;;;;;;;;;;5051165;28;20446;-44
2023/09/15 06:10:08;;;;;;;242.37;79.60;;;;;;;;;;5052926;28;20492;-44
2023/09/15 06:12:34;;;;;;;246.93;85.53;;;;;;;;;;5052920;28;20443;-44
2023/09/15 06:15:00;;;;;;;251.83;87.90;;;;;;;;;;5052268;28;20762;-44
2023/09/15 06:17:27;;;;;;;245.00;82.90;;;;;;;;;;5052648;28;20919;-44
2023/09/15 06:19:54;;;;;;;243.53;80.80;;;;;;;;;;5050927;28;21013;-44
2023/09/15 06:22:20;;;;;;;243.27;81.97;;;;;;;;;;5052594;28;20442;-45
2023/09/15 06:24:46;;;;;;;243.77;86.00;;;;;;;;;;5052502;28;20971;-44
2023/09/15 06:27:12;;;;;;;245.47;83.10;;;;;;;;;;5052205;28;20558;-44
2023/09/15 06:29:38;;;;;;;238.57;78.77;;;;;;;;;;5052387;28;20507;-44
2023/09/15 06:32:04;;;;;;;237.77;78.30;;;;;;;;;;5052456;28;20799;-44
2023/09/15 06:34:30;;;;;;;242.87;83.43;;;;;;;;;;5050840;28;20421;-44
2023/09/15 06:36:56;;;;;;;244.13;82.37;;;;;;;;;;5053141;28;20503;-45
2023/09/15 06:39:26;;;;;;;242.83;82.60;;;;;;;;;;5052249;28;20444;-44
2023/09/15 06:41:52;;;;;;;241.47;81.30;;;;;;;;;;5051870;28;20772;-44
2023/09/15 06:44:18;;;;;;;239.60;80.47;;;;;;;;;;5046414;28;20402;-45
2023/09/15 06:46:44;;;;;;;246.53;85.13;;;;;;;;;;5047039;28;20457;-46
2023/09/15 06:49:10;;;;;;;244.80;85.27;;;;;;;;;;5051776;28;20433;-45
2023/09/15 06:51:36;;;;;;;244.17;86.37;;;;;;;;;;5048981;28;20429;-45
2023/09/15 06:54:02;;;;;;;249.13;89.63;;;;;;;;;;5051976;28;20424;-45
2023/09/15 06:56:28;;;;;;;245.33;86.27;;;;;;;;;;5052125;28;20570;-45
2023/09/15 06:58:54;;;;;;;247.43;86.23;;;;;;;;;;5049531;28;20499;-46
2023/09/15 07:01:20;;;;;;;249.53;91.23;;;;;;;;;;5044795;28;20424;-45
2023/09/15 07:03:46;;;;;;;251.00;91.10;;;;;;;;;;5050584;28;20434;-45
2023/09/15 07:06:13;;;;;;;252.53;90.77;;;;;;;;;;5051679;28;20464;-45
2023/09/15 07:08:39;;;;;;;254.27;94.73;;;;;;;;;;5051650;28;20436;-45
2023/09/15 07:11:05;;;;;;;256.47;98.47;;;;;;;;;;5051644;28;20506;-45
2023/09/15 07:13:31;;;;;;;253.33;95.17;;;;;;;;;;5051922;28;20498;-46
2023/09/15 07:15:57;;;;;;;253.80;97.37;;;;;;;;;;5051644;28;20980;-45
2023/09/15 07:18:23;;;;;;;254.57;101.77;;;;;;;;;;5051454;28;20429;-45
2023/09/15 07:20:49;;;;;;;255.57;104.17;;;;;;;;;;5051720;28;20931;-45
2023/09/15 07:23:15;;;;;;;256.27;108.57;;;;;;;;;;5051878;28;20850;-45
2023/09/15 07:25:45;;;;;;;258.73;106.30;;;;;;;;;;5050740;28;20467;-45
2023/09/15 07:28:11;;;;;;;259.53;111.33;;;;;;;;;;5049606;28;20440;-46
2023/09/15 07:30:37;;;;;;;257.30;106.97;;;;;;;;;;5048450;28;20788;-45
2023/09/15 07:33:03;;;;;;;257.70;107.80;;;;;;;;;;5050221;28;20448;-45
2023/09/15 07:35:30;;;;;;;260.07;107.50;;;;;;;;;;5050701;28;20433;-45
2023/09/15 07:37:56;;;;;;;255.43;106.87;;;;;;;;;;5049840;28;20452;-46
2023/09/15 07:40:23;;;;;;;255.23;107.00;;;;;;;;;;5051083;28;20412;-46
2023/09/15 07:42:49;;;;;;;255.17;110.83;;;;;;;;;;5051383;28;20418;-47
2023/09/15 07:45:15;;;;;;;254.20;107.70;;;;;;;;;;5050159;28;20428;-46
2023/09/15 07:47:41;;;;;;;257.33;112.43;;;;;;;;;;5051293;28;20401;-45
2023/09/15 07:50:07;;;;;;;250.93;104.20;;;;;;;;;;5051588;28;20466;-47
2023/09/15 07:52:33;;;;;;;253.10;108.10;;;;;;;;;;5051565;28;20916;-46
2023/09/15 07:54:59;;;;;;;257.23;113.90;;;;;;;;;;5051192;28;20405;-46
2023/09/15 07:57:25;;;;;;;259.33;117.93;;;;;;;;;;5051303;28;20967;-46
2023/09/15 07:59:52;;;;;;;251.47;107.90;;;;;;;;;;5050061;28;20808;-46
2023/09/15 08:02:18;;;;;;;254.40;114.43;;;;;;;;;;5051653;28;20417;-47
2023/09/15 08:04:44;;;;;;;254.50;110.63;;;;;;;;;;5051140;28;20506;-46
2023/09/15 08:07:10;;;;;;;260.87;123.43;;;;;;;;;;5045005;28;20967;-46
2023/09/15 08:09:36;;;;;;;251.23;108.67;;;;;;;;;;5051132;28;20441;-46
2023/09/15 08:12:03;;;;;;;252.23;110.03;;;;;;;;;;5051017;28;20499;-46
2023/09/15 08:14:29;;;;;;;252.00;113.53;;;;;;;;;;5053473;28;20397;-46
2023/09/15 08:16:55;;;;;;;252.87;113.57;;;;;;;;;;5054118;28;20454;-46
2023/09/15 08:19:21;;;;;;;253.00;113.27;;;;;;;;;;5054751;28;20448;-46
2023/09/15 08:21:48;;;;;;;253.47;115.23;;;;;;;;;;5054928;28;20420;-46
2023/09/15 08:24:14;;;;;;;254.87;119.70;;;;;;;;;;5055146;28;20428;-46
2023/09/15 08:26:40;;;;;;;254.23;115.50;;;;;;;;;;5053854;28;20456;-46
2023/09/15 08:29:06;;;;;;;256.40;120.57;;;;;;;;;;5054585;28;20429;-45
2023/09/15 08:31:32;;;;;;;257.77;126.40;;;;;;;;;;5054816;28;20838;-46
2023/09/15 08:33:59;;;;;;;259.70;133.97;;;;;;;;;;5054642;28;20477;-46
2023/09/15 08:36:26;;;;;;;254.73;123.37;;;;;;;;;;5054792;28;20436;-47
2023/09/15 08:38:53;;;;;;;254.97;121.20;;;;;;;;;;5054288;28;20524;-47
2023/09/15 08:41:26;;;;;;;257.67;131.23;;;;;;;;;;5053863;28;20409;-46
2023/09/15 08:43:52;;;;;;;254.10;122.97;;;;;;;;;;5054534;28;20897;-45
2023/09/15 08:46:19;;;;;;;253.50;120.57;;;;;;;;;;5054535;28;20822;-46
2023/09/15 08:48:49;;;;;;;252.50;118.80;;;;;;;;;;5054157;28;20429;-46
2023/09/15 08:51:15;;;;;;;260.20;138.00;;;;;;;;;;5054203;28;20421;-46
2023/09/15 08:53:42;;;;;;;254.43;122.00;;;;;;;;;;5053483;28;20401;-46
2023/09/15 08:56:08;;;;;;;252.77;119.93;;;;;;;;;;5054266;28;20936;-47
2023/09/15 08:58:34;;;;;;;253.90;124.20;;;;;;;;;;5054072;28;20472;-46
2023/09/15 09:01:01;;;;;;;254.67;121.57;;;;;;;;;;5054188;28;20428;-46
2023/09/15 09:03:28;;;;;;;251.23;117.87;;;;;;;;;;5054236;28;20442;-46
2023/09/15 09:05:55;;;;;;;261.57;138.90;;;;;;;;;;5053934;28;20465;-48
2023/09/15 09:08:22;;;;;;;263.00;140.20;;;;;;;;;;5052891;28;20441;-47
2023/09/15 09:10:50;;;;;;;255.90;124.87;;;;;;;;;;5054126;28;20803;-46
2023/09/15 09:13:16;;;;;;;255.17;124.37;;;;;;;;;;5054232;28;20405;-47
2023/09/15 09:15:42;;;;;;;256.20;126.90;;;;;;;;;;5053012;28;20550;-46
2023/09/15 09:18:18;;;;;;;254.57;124.13;;;;;;;;;;5050355;28;20426;-47
2023/09/15 09:20:46;;;;;;;252.97;123.10;;;;;;;;;;5058778;28;20423;-46
2023/09/15 09:23:12;;;;;;;255.17;128.77;;;;;;;;;;5060220;28;20406;-46
2023/09/15 09:25:39;;;;;;;256.70;132.73;;;;;;;;;;5053631;28;20460;-46
2023/09/15 09:28:05;;;;;;;254.13;126.27;;;;;;;;;;5052032;28;20944;-46
2023/09/15 09:30:31;;;;;;;256.57;129.93;;;;;;;;;;5053740;28;20907;-47
2023/09/15 09:32:58;;;;;;;254.13;128.00;;;;;;;;;;5053593;28;20397;-46
2023/09/15 09:35:24;;;;;;;252.67;124.57;;;;;;;;;;5058399;28;20417;-46
2023/09/15 09:37:50;;;;;;;255.37;131.20;;;;;;;;;;5053251;28;20471;-47
2023/09/15 09:40:18;;;;;;;253.87;129.53;;;;;;;;;;5061997;28;20770;-46
2023/09/15 09:42:44;;;;;;;256.20;133.93;;;;;;;;;;5053492;28;20845;-45
2023/09/15 09:45:10;;;;;;;254.60;131.57;;;;;;;;;;5056624;28;20410;-46
2023/09/15 09:47:36;;;;;;;257.60;135.43;;;;;;;;;;5056378;28;20789;-47
2023/09/15 09:50:06;;;;;;;254.93;132.67;;;;;;;;;;5054894;28;20416;-47
2023/09/15 09:52:33;;;;;;;254.83;131.37;;;;;;;;;;5057452;28;20429;-48
2023/09/15 09:55:04;;;;;;;255.13;133.30;;;;;;;;;;5061256;28;20410;-48
2023/09/15 09:57:30;;;;;;;252.07;131.17;;;;;;;;;;5053097;28;20541;-46
2023/09/15 09:59:56;;;;;;;255.70;135.53;;;;;;;;;;5056056;28;20947;-47
2023/09/15 10:02:22;;;;;;;254.33;131.73;;;;;;;;;;5057833;28;20500;-46
2023/09/15 10:04:48;;;;;;;256.60;138.93;;;;;;;;;;5048991;28;20437;-46
2023/09/15 10:07:14;;;;;;;259.50;138.07;;;;;;;;;;5056520;28;20991;-46
2023/09/15 10:09:41;;;;;;;254.07;132.83;;;;;;;;;;5054316;28;21010;-46
2023/09/15 10:12:07;;;;;;;252.17;132.50;;;;;;;;;;5053007;28;20781;-46
2023/09/15 10:14:33;;;;;;;252.07;131.87;;;;;;;;;;5055573;28;20402;-46
2023/09/15 10:16:59;;;;;;;247.93;123.10;;;;;;;;;;5035202;28;20487;-47
2023/09/15 10:19:26;;;;;;;252.73;133.07;;;;;;;;;;5045716;28;20844;-46
2023/09/15 10:21:52;;;;;;;255.80;136.13;;;;;;;;;;5061477;28;20448;-46
2023/09/15 10:24:18;;;;;;;252.90;130.97;;;;;;;;;;5065804;28;20409;-46
2023/09/15 10:26:46;;;;;;;250.87;129.83;;;;;;;;;;5056428;28;20867;-47
2023/09/15 10:29:12;;;;;;;256.23;140.90;;;;;;;;;;5070080;28;20983;-46
2023/09/15 10:31:45;;;;;;;255.47;133.27;;;;;;;;;;5032061;28;20406;-47
2023/09/15 10:34:11;;;;;;;256.23;137.30;;;;;;;;;;5068823;28;20470;-46
2023/09/15 10:36:39;;;;;;;250.43;129.70;;;;;;;;;;5055141;28;20413;-46
2023/09/15 10:39:12;;;;;;;248.27;126.10;;;;;;;;;;5065560;28;20436;-46
2023/09/15 10:41:38;;;;;;;249.80;125.80;;;;;;;;;;5060651;28;20418;-46
2023/09/15 10:44:04;;;;;;;249.63;131.20;;;;;;;;;;5060493;28;20499;-46
2023/09/15 10:46:35;;;;;;;250.47;128.00;;;;;;;;;;5066873;28;20468;-47
2023/09/15 10:49:12;;;;;;;249.73;127.13;;;;;;;;;;5054806;28;20951;-46
2023/09/15 10:51:40;;;;;;;249.83;128.33;;;;;;;;;;5069547;28;20416;-47
2023/09/15 10:54:06;;;;;;;252.77;133.10;;;;;;;;;;5032179;28;20409;-46
2023/09/15 10:56:32;;;;;;;248.77;126.07;;;;;;;;;;5069297;28;20784;-47
2023/09/15 10:58:58;;;;;;;250.37;129.83;;;;;;;;;;5056263;28;20440;-46
2023/09/15 11:01:24;;;;;;;251.20;132.70;;;;;;;;;;5064673;28;20412;-46
2023/09/15 11:03:51;;;;;;;252.97;134.30;;;;;;;;;;5062631;28;20409;-47
2023/09/15 11:06:19;;;;;;;252.80;136.23;;;;;;;;;;5058676;28;20452;-46
2023/09/15 11:08:44;;;;;;;250.47;135.43;;;;;;;;;;5067858;28;20429;-46
2023/09/15 11:11:10;;;;;;;250.73;134.80;;;;;;;;;;5051906;28;20501;-46
2023/09/15 11:13:37;;;;;;;252.33;138.90;;;;;;;;;;5051899;28;20409;-46
2023/09/15 11:16:03;;;;;;;246.83;129.80;;;;;;;;;;5051731;28;20409;-45
2023/09/15 11:18:36;;;;;;;248.73;130.57;;;;;;;;;;5066455;28;21044;-46
2023/09/15 11:21:02;;;;;;;248.00;126.40;;;;;;;;;;5059011;28;20413;-46
2023/09/15 11:23:28;;;;;;;251.83;139.30;;;;;;;;;;5051826;28;20405;-46
2023/09/15 11:26:06;;;;;;;255.93;141.70;;;;;;;;;;5051596;28;20465;-46
2023/09/15 11:28:32;;;;;;;247.33;130.03;;;;;;;;;;5056686;28;20872;-46
2023/09/15 11:30:58;;;;;;;247.07;127.83;;;;;;;;;;5070857;28;20905;-46
2023/09/15 11:33:25;;;;;;;246.80;129.10;;;;;;;;;;5056938;28;20448;-47
2023/09/15 11:35:51;;;;;;;251.93;133.83;;;;;;;;;;5050321;28;20420;-46
2023/09/15 11:38:18;;;;;;;245.80;125.50;;;;;;;;;;5058623;28;20990;-46
2023/09/15 11:40:47;;;;;;;245.03;126.07;;;;;;;;;;5065074;28;20405;-47
2023/09/15 11:43:14;;;;;;;245.23;128.07;;;;;;;;;;5060738;28;20413;-46
2023/09/15 11:45:40;;;;;;;243.00;124.40;;;;;;;;;;5051796;28;20461;-45
2023/09/15 11:48:07;;;;;;;248.77;134.73;;;;;;;;;;5053727;28;20457;-45
2023/09/15 11:50:33;;;;;;;248.30;131.03;;;;;;;;;;5055723;28;20876;-46
2023/09/15 11:53:01;;;;;;;247.73;129.77;;;;;;;;;;5055660;28;20423;-47
2023/09/15 11:55:27;;;;;;;247.50;131.97;;;;;;;;;;5059767;28;20417;-46
2023/09/15 11:57:53;;;;;;;247.23;132.87;;;;;;;;;;5061235;28;20471;-46
2023/09/15 12:00:20;;;;;;;247.57;132.30;;;;;;;;;;5055557;28;20437;-46
2023/09/15 12:02:47;;;;;;;250.77;136.27;;;;;;;;;;5054276;28;20416;-45
2023/09/15 12:05:16;;;;;;;246.63;134.40;;;;;;;;;;5055356;28;20504;-46
2023/09/15 12:07:45;;;;;;;250.77;136.20;;;;;;;;;;5055158;28;20843;-46
2023/09/15 12:10:12;;;;;;;246.93;129.83;;;;;;;;;;5057561;28;20480;-46
2023/09/15 12:12:38;;;;;;;247.83;133.47;;;;;;;;;;5075414;28;20384;-46
2023/09/15 12:15:06;;;;;;;246.17;133.00;;;;;;;;;;5050397;28;20463;-46
2023/09/15 12:17:32;;;;;;;248.33;134.23;;;;;;;;;;5071536;28;20446;-46
2023/09/15 12:20:04;;;;;;;249.27;135.20;;;;;;;;;;5058453;28;20444;-45
2023/09/15 12:22:34;;;;;;;248.87;134.27;;;;;;;;;;5055019;28;20401;-47
2023/09/15 12:25:00;;;;;;;250.63;138.73;;;;;;;;;;5060829;28;20436;-46
2023/09/15 12:27:27;;;;;;;251.47;137.60;;;;;;;;;;5060683;28;20455;-46
2023/09/15 12:29:53;;;;;;;250.30;138.30;;;;;;;;;;5055990;28;20429;-46
2023/09/15 12:32:26;;;;;;;249.63;139.63;;;;;;;;;;5054937;28;20409;-46
2023/09/15 12:34:52;;;;;;;250.30;139.87;;;;;;;;;;5053367;28;20405;-46
2023/09/15 12:37:18;;;;;;;251.23;142.03;;;;;;;;;;5059538;28;20978;-45
2023/09/15 12:39:45;;;;;;;249.40;136.83;;;;;;;;;;5060430;28;20440;-47
2023/09/15 12:42:11;;;;;;;248.77;139.30;;;;;;;;;;5065639;28;20419;-46
2023/09/15 12:44:37;;;;;;;249.73;141.90;;;;;;;;;;5065350;28;20428;-46
2023/09/15 12:47:04;;;;;;;253.17;143.17;;;;;;;;;;5060336;28;20460;-47
2023/09/15 12:49:30;;;;;;;251.93;139.57;;;;;;;;;;5068394;28;20430;-47
2023/09/15 12:51:56;;;;;;;248.33;138.60;;;;;;;;;;5034462;28;20414;-46
2023/09/15 12:54:22;;;;;;;246.90;134.97;;;;;;;;;;5034586;28;20414;-46
2023/09/15 12:56:53;;;;;;;246.77;136.83;;;;;;;;;;5068596;28;20400;-46
2023/09/15 12:59:22;;;;;;;250.47;141.73;;;;;;;;;;5059156;28;20443;-46
2023/09/15 13:01:49;;;;;;;247.70;138.33;;;;;;;;;;5066442;28;20407;-46
2023/09/15 13:04:15;;;;;;;248.13;136.73;;;;;;;;;;5065013;28;20778;-46
2023/09/15 13:06:41;;;;;;;248.17;137.83;;;;;;;;;;5060306;28;20452;-48
2023/09/15 13:09:09;;;;;;;247.20;137.30;;;;;;;;;;5067686;28;20437;-47
2023/09/15 13:11:36;;;;;;;251.33;141.27;;;;;;;;;;5035253;28;20504;-47
2023/09/15 13:14:02;;;;;;;250.33;140.50;;;;;;;;;;5045740;28;20409;-48
2023/09/15 13:16:28;;;;;;;252.17;138.87;;;;;;;;;;5071249;28;20545;-46
2023/09/15 13:18:54;;;;;;;248.07;139.83;;;;;;;;;;5058213;28;20428;-46
2023/09/15 13:21:20;;;;;;;247.80;139.60;;;;;;;;;;5065557;28;20412;-46
2023/09/15 13:23:46;;;;;;;246.73;137.37;;;;;;;;;;5057001;28;20418;-46
2023/09/15 13:26:13;;;;;;;246.60;132.67;;;;;;;;;;5039082;28;20540;-46
2023/09/15 13:28:38;;;;;;;247.33;136.10;;;;;;;;;;5051086;28;20956;-47
2023/09/15 13:31:05;;;;;;;247.10;138.10;;;;;;;;;;5053797;28;20412;-47
2023/09/15 13:33:31;;;;;;;247.60;137.73;;;;;;;;;;5057654;28;20909;-46
2023/09/15 13:35:57;;;;;;;250.23;140.53;;;;;;;;;;5059064;28;20409;-48
2023/09/15 13:38:23;;;;;;;249.40;137.03;;;;;;;;;;5060558;28;20483;-47
2023/09/15 13:40:49;;;;;;;251.13;139.17;;;;;;;;;;5062890;28;20428;-46
2023/09/15 13:43:15;;;;;;;250.43;137.20;;;;;;;;;;5066145;28;20412;-45
2023/09/15 13:45:51;;;;;;;248.30;135.03;;;;;;;;;;5057906;28;20559;-46
2023/09/15 13:48:17;;;;;;;247.57;135.30;;;;;;;;;;5070522;28;20937;-46
2023/09/15 13:50:42;;;;;;;249.83;137.47;;;;;;;;;;5053428;28;20410;-46
2023/09/15 13:53:08;;;;;;;245.67;133.67;;;;;;;;;;5072886;28;20846;-47
2023/09/15 13:55:34;;;;;;;247.20;131.90;;;;;;;;;;5039962;28;20432;-46
2023/09/15 13:58:00;;;;;;;248.40;134.93;;;;;;;;;;5046621;28;20520;-46